sensor_id;sensor_type;location;lat;lon;timestamp;P1;durP1;ratioP1;P2;durP2;ratioP2
23517;SDS011;11935;50.878;4.392;2022-08-03T00:01:58;3.30;;;0.90;;
23517;SDS011;11935;50.878;4.392;2022-08-03T00:04:25;4.05;;;1.20;;
23517;SDS011;11935;50.878;4.392;2022-08-03T00:06:51;4.95;;;1.40;;
23517;SDS011;11935;50.878;4.392;2022-08-03T00:09:17;5.70;;;1.17;;
23517;SDS011;11935;50.878;4.392;2022-08-03T00:11:44;3.65;;;1.30;;
23517;SDS011;11935;50.878;4.392;2022-08-03T00:14:10;4.95;;;1.10;;
23517;SDS011;11935;50.878;4.392;2022-08-03T00:16:36;8.65;;;1.70;;
23517;SDS011;11935;50.878;4.392;2022-08-03T00:19:02;8.73;;;1.58;;
23517;SDS011;11935;50.878;4.392;2022-08-03T00:21:29;5.40;;;1.23;;
23517;SDS011;11935;50.878;4.392;2022-08-03T00:23:55;4.72;;;1.15;;
23517;SDS011;11935;50.878;4.392;2022-08-03T00:26:21;6.90;;;1.30;;
23517;SDS011;11935;50.878;4.392;2022-08-03T00:28:48;7.95;;;1.38;;
23517;SDS011;11935;50.878;4.392;2022-08-03T00:31:14;7.70;;;1.23;;
23517;SDS011;11935;50.878;4.392;2022-08-03T00:33:40;8.05;;;1.27;;
23517;SDS011;11935;50.878;4.392;2022-08-03T00:36:06;8.05;;;1.42;;
23517;SDS011;11935;50.878;4.392;2022-08-03T00:38:32;7.40;;;1.27;;
23517;SDS011;11935;50.878;4.392;2022-08-03T00:40:58;5.63;;;1.20;;
23517;SDS011;11935;50.878;4.392;2022-08-03T00:43:24;7.30;;;1.38;;
23517;SDS011;11935;50.878;4.392;2022-08-03T00:45:51;10.95;;;2.00;;
23517;SDS011;11935;50.878;4.392;2022-08-03T00:48:18;4.43;;;1.38;;
23517;SDS011;11935;50.878;4.392;2022-08-03T00:50:45;10.73;;;1.50;;
23517;SDS011;11935;50.878;4.392;2022-08-03T00:53:12;7.25;;;1.67;;
23517;SDS011;11935;50.878;4.392;2022-08-03T00:55:39;3.28;;;1.58;;
23517;SDS011;11935;50.878;4.392;2022-08-03T00:58:06;10.65;;;1.55;;
23517;SDS011;11935;50.878;4.392;2022-08-03T01:00:33;7.45;;;1.88;;
23517;SDS011;11935;50.878;4.392;2022-08-03T01:03:00;6.43;;;1.48;;
23517;SDS011;11935;50.878;4.392;2022-08-03T01:05:26;6.95;;;1.48;;
23517;SDS011;11935;50.878;4.392;2022-08-03T01:08:07;5.15;;;1.48;;
23517;SDS011;11935;50.878;4.392;2022-08-03T01:10:41;7.20;;;1.60;;
23517;SDS011;11935;50.878;4.392;2022-08-03T01:15:42;7.38;;;1.40;;
23517;SDS011;11935;50.878;4.392;2022-08-03T01:18:13;7.45;;;1.90;;
23517;SDS011;11935;50.878;4.392;2022-08-03T01:20:46;6.00;;;1.30;;
23517;SDS011;11935;50.878;4.392;2022-08-03T01:23:26;8.32;;;1.70;;
23517;SDS011;11935;50.878;4.392;2022-08-03T01:31:07;10.57;;;1.67;;
23517;SDS011;11935;50.878;4.392;2022-08-03T01:33:35;6.22;;;1.70;;
23517;SDS011;11935;50.878;4.392;2022-08-03T01:36:06;6.95;;;2.10;;
23517;SDS011;11935;50.878;4.392;2022-08-03T01:38:35;5.93;;;1.40;;
23517;SDS011;11935;50.878;4.392;2022-08-03T01:41:11;5.97;;;1.80;;
23517;SDS011;11935;50.878;4.392;2022-08-03T01:43:39;7.63;;;1.95;;
23517;SDS011;11935;50.878;4.392;2022-08-03T01:46:07;4.53;;;1.45;;
23517;SDS011;11935;50.878;4.392;2022-08-03T01:48:35;10.85;;;1.67;;
23517;SDS011;11935;50.878;4.392;2022-08-03T01:51:02;8.45;;;1.40;;
23517;SDS011;11935;50.878;4.392;2022-08-03T01:53:28;9.15;;;1.58;;
23517;SDS011;11935;50.878;4.392;2022-08-03T01:55:56;8.82;;;1.40;;
23517;SDS011;11935;50.878;4.392;2022-08-03T01:58:22;10.50;;;1.38;;
23517;SDS011;11935;50.878;4.392;2022-08-03T02:00:49;7.63;;;1.23;;
23517;SDS011;11935;50.878;4.392;2022-08-03T02:03:16;7.65;;;1.52;;
23517;SDS011;11935;50.878;4.392;2022-08-03T02:05:44;7.28;;;1.88;;
23517;SDS011;11935;50.878;4.392;2022-08-03T02:08:12;9.00;;;1.53;;
23517;SDS011;11935;50.878;4.392;2022-08-03T02:10:39;12.60;;;1.90;;
23517;SDS011;11935;50.878;4.392;2022-08-03T02:13:06;12.95;;;1.50;;
23517;SDS011;11935;50.878;4.392;2022-08-03T02:15:33;7.70;;;2.50;;
23517;SDS011;11935;50.878;4.392;2022-08-03T02:18:00;9.52;;;1.50;;
23517;SDS011;11935;50.878;4.392;2022-08-03T02:20:27;9.73;;;1.90;;
23517;SDS011;11935;50.878;4.392;2022-08-03T02:22:57;5.10;;;2.05;;
23517;SDS011;11935;50.878;4.392;2022-08-03T02:25:23;7.05;;;1.05;;
23517;SDS011;11935;50.878;4.392;2022-08-03T02:27:54;7.13;;;2.10;;
23517;SDS011;11935;50.878;4.392;2022-08-03T02:30:24;5.80;;;1.13;;
23517;SDS011;11935;50.878;4.392;2022-08-03T02:32:55;12.05;;;1.67;;
23517;SDS011;11935;50.878;4.392;2022-08-03T02:35:23;9.13;;;1.30;;
23517;SDS011;11935;50.878;4.392;2022-08-03T02:37:51;4.55;;;1.35;;
23517;SDS011;11935;50.878;4.392;2022-08-03T02:40:18;6.10;;;1.40;;
23517;SDS011;11935;50.878;4.392;2022-08-03T02:42:45;7.03;;;1.90;;
23517;SDS011;11935;50.878;4.392;2022-08-03T02:45:11;8.63;;;1.23;;
23517;SDS011;11935;50.878;4.392;2022-08-03T02:47:40;8.68;;;1.30;;
23517;SDS011;11935;50.878;4.392;2022-08-03T02:50:07;5.93;;;1.50;;
23517;SDS011;11935;50.878;4.392;2022-08-03T02:52:34;5.82;;;1.48;;
23517;SDS011;11935;50.878;4.392;2022-08-03T02:55:01;4.85;;;1.40;;
23517;SDS011;11935;50.878;4.392;2022-08-03T02:57:27;6.60;;;1.30;;
23517;SDS011;11935;50.878;4.392;2022-08-03T02:59:56;6.38;;;1.40;;
23517;SDS011;11935;50.878;4.392;2022-08-03T03:02:22;9.90;;;1.80;;
23517;SDS011;11935;50.878;4.392;2022-08-03T03:04:50;7.43;;;1.40;;
23517;SDS011;11935;50.878;4.392;2022-08-03T03:07:17;11.25;;;2.15;;
23517;SDS011;11935;50.878;4.392;2022-08-03T03:09:43;5.72;;;1.67;;
23517;SDS011;11935;50.878;4.392;2022-08-03T03:12:10;6.30;;;1.48;;
23517;SDS011;11935;50.878;4.392;2022-08-03T03:14:37;6.70;;;1.60;;
23517;SDS011;11935;50.878;4.392;2022-08-03T03:17:04;3.95;;;1.63;;
23517;SDS011;11935;50.878;4.392;2022-08-03T03:19:31;5.32;;;1.67;;
23517;SDS011;11935;50.878;4.392;2022-08-03T03:21:59;5.15;;;1.30;;
23517;SDS011;11935;50.878;4.392;2022-08-03T03:24:26;5.68;;;1.75;;
23517;SDS011;11935;50.878;4.392;2022-08-03T03:26:53;7.60;;;1.63;;
23517;SDS011;11935;50.878;4.392;2022-08-03T03:29:20;4.55;;;1.38;;
23517;SDS011;11935;50.878;4.392;2022-08-03T03:31:46;7.47;;;1.63;;
23517;SDS011;11935;50.878;4.392;2022-08-03T03:34:12;7.55;;;1.50;;
23517;SDS011;11935;50.878;4.392;2022-08-03T03:36:38;8.68;;;2.33;;
23517;SDS011;11935;50.878;4.392;2022-08-03T03:39:04;7.53;;;1.73;;
23517;SDS011;11935;50.878;4.392;2022-08-03T03:41:31;9.57;;;2.40;;
23517;SDS011;11935;50.878;4.392;2022-08-03T03:43:57;6.72;;;2.03;;
23517;SDS011;11935;50.878;4.392;2022-08-03T03:46:23;4.32;;;1.35;;
23517;SDS011;11935;50.878;4.392;2022-08-03T03:48:49;12.43;;;1.75;;
23517;SDS011;11935;50.878;4.392;2022-08-03T03:51:16;9.65;;;1.30;;
23517;SDS011;11935;50.878;4.392;2022-08-03T03:53:58;7.20;;;1.88;;
23517;SDS011;11935;50.878;4.392;2022-08-03T03:56:25;7.00;;;2.47;;
23517;SDS011;11935;50.878;4.392;2022-08-03T03:58:51;7.03;;;2.10;;
23517;SDS011;11935;50.878;4.392;2022-08-03T04:01:18;8.43;;;2.67;;
23517;SDS011;11935;50.878;4.392;2022-08-03T04:03:44;10.07;;;2.08;;
23517;SDS011;11935;50.878;4.392;2022-08-03T04:06:11;7.95;;;2.10;;
23517;SDS011;11935;50.878;4.392;2022-08-03T04:08:56;11.77;;;2.55;;
23517;SDS011;11935;50.878;4.392;2022-08-03T04:11:42;5.90;;;1.85;;
23517;SDS011;11935;50.878;4.392;2022-08-03T04:14:15;12.70;;;2.22;;
23517;SDS011;11935;50.878;4.392;2022-08-03T04:16:50;7.32;;;1.83;;
23517;SDS011;11935;50.878;4.392;2022-08-03T04:19:27;16.52;;;2.95;;
23517;SDS011;11935;50.878;4.392;2022-08-03T04:22:02;9.77;;;1.60;;
23517;SDS011;11935;50.878;4.392;2022-08-03T04:24:33;8.93;;;1.90;;
23517;SDS011;11935;50.878;4.392;2022-08-03T04:27:01;6.30;;;1.55;;
23517;SDS011;11935;50.878;4.392;2022-08-03T04:29:27;7.70;;;1.73;;
23517;SDS011;11935;50.878;4.392;2022-08-03T04:31:53;8.30;;;1.58;;
23517;SDS011;11935;50.878;4.392;2022-08-03T04:34:22;8.90;;;2.28;;
23517;SDS011;11935;50.878;4.392;2022-08-03T04:36:48;9.07;;;1.83;;
23517;SDS011;11935;50.878;4.392;2022-08-03T04:39:18;8.23;;;1.95;;
23517;SDS011;11935;50.878;4.392;2022-08-03T04:41:49;6.82;;;1.60;;
23517;SDS011;11935;50.878;4.392;2022-08-03T04:44:17;9.25;;;1.73;;
23517;SDS011;11935;50.878;4.392;2022-08-03T04:46:44;12.73;;;1.77;;
23517;SDS011;11935;50.878;4.392;2022-08-03T04:49:10;6.72;;;1.90;;
23517;SDS011;11935;50.878;4.392;2022-08-03T04:51:37;7.90;;;1.92;;
23517;SDS011;11935;50.878;4.392;2022-08-03T04:54:04;8.40;;;1.50;;
23517;SDS011;11935;50.878;4.392;2022-08-03T04:56:31;10.68;;;1.73;;
23517;SDS011;11935;50.878;4.392;2022-08-03T04:58:58;8.65;;;1.70;;
23517;SDS011;11935;50.878;4.392;2022-08-03T05:01:24;8.10;;;1.73;;
23517;SDS011;11935;50.878;4.392;2022-08-03T05:03:50;6.78;;;1.50;;
23517;SDS011;11935;50.878;4.392;2022-08-03T05:06:16;10.18;;;1.70;;
23517;SDS011;11935;50.878;4.392;2022-08-03T05:08:42;9.13;;;1.85;;
23517;SDS011;11935;50.878;4.392;2022-08-03T05:11:08;9.02;;;1.75;;
23517;SDS011;11935;50.878;4.392;2022-08-03T05:13:34;7.82;;;2.00;;
23517;SDS011;11935;50.878;4.392;2022-08-03T05:16:00;8.10;;;2.05;;
23517;SDS011;11935;50.878;4.392;2022-08-03T05:18:26;8.43;;;1.52;;
23517;SDS011;11935;50.878;4.392;2022-08-03T05:20:52;4.65;;;1.20;;
23517;SDS011;11935;50.878;4.392;2022-08-03T05:23:18;6.63;;;1.70;;
23517;SDS011;11935;50.878;4.392;2022-08-03T05:25:44;7.13;;;1.83;;
23517;SDS011;11935;50.878;4.392;2022-08-03T05:28:10;8.38;;;2.10;;
23517;SDS011;11935;50.878;4.392;2022-08-03T05:30:36;6.78;;;1.40;;
23517;SDS011;11935;50.878;4.392;2022-08-03T05:33:03;7.95;;;1.77;;
23517;SDS011;11935;50.878;4.392;2022-08-03T05:35:29;6.45;;;1.67;;
23517;SDS011;11935;50.878;4.392;2022-08-03T05:37:56;5.80;;;1.45;;
23517;SDS011;11935;50.878;4.392;2022-08-03T05:40:22;7.40;;;1.60;;
23517;SDS011;11935;50.878;4.392;2022-08-03T05:42:48;15.95;;;2.17;;
23517;SDS011;11935;50.878;4.392;2022-08-03T05:45:14;14.18;;;2.25;;
23517;SDS011;11935;50.878;4.392;2022-08-03T05:47:44;4.88;;;1.55;;
23517;SDS011;11935;50.878;4.392;2022-08-03T05:50:10;6.95;;;1.80;;
23517;SDS011;11935;50.878;4.392;2022-08-03T05:52:37;7.28;;;1.85;;
23517;SDS011;11935;50.878;4.392;2022-08-03T05:55:07;7.03;;;1.50;;
23517;SDS011;11935;50.878;4.392;2022-08-03T05:57:33;3.72;;;1.38;;
23517;SDS011;11935;50.878;4.392;2022-08-03T06:00:03;7.85;;;1.88;;
23517;SDS011;11935;50.878;4.392;2022-08-03T06:02:30;7.22;;;1.52;;
23517;SDS011;11935;50.878;4.392;2022-08-03T06:04:56;6.88;;;1.38;;
23517;SDS011;11935;50.878;4.392;2022-08-03T06:07:22;6.57;;;1.95;;
23517;SDS011;11935;50.878;4.392;2022-08-03T06:09:48;9.95;;;1.73;;
23517;SDS011;11935;50.878;4.392;2022-08-03T06:12:14;9.77;;;2.13;;
23517;SDS011;11935;50.878;4.392;2022-08-03T06:14:40;8.90;;;1.60;;
23517;SDS011;11935;50.878;4.392;2022-08-03T06:17:06;6.80;;;1.95;;
23517;SDS011;11935;50.878;4.392;2022-08-03T06:19:32;8.70;;;1.45;;
23517;SDS011;11935;50.878;4.392;2022-08-03T06:21:58;11.93;;;1.88;;
23517;SDS011;11935;50.878;4.392;2022-08-03T06:24:24;8.27;;;1.75;;
23517;SDS011;11935;50.878;4.392;2022-08-03T06:26:50;7.43;;;1.77;;
23517;SDS011;11935;50.878;4.392;2022-08-03T06:29:16;10.52;;;2.20;;
23517;SDS011;11935;50.878;4.392;2022-08-03T06:31:42;9.40;;;2.03;;
23517;SDS011;11935;50.878;4.392;2022-08-03T06:34:08;9.10;;;1.73;;
23517;SDS011;11935;50.878;4.392;2022-08-03T06:36:34;13.60;;;2.17;;
23517;SDS011;11935;50.878;4.392;2022-08-03T06:39:00;7.57;;;1.42;;
23517;SDS011;11935;50.878;4.392;2022-08-03T06:41:26;9.65;;;1.73;;
23517;SDS011;11935;50.878;4.392;2022-08-03T06:43:53;11.35;;;2.22;;
23517;SDS011;11935;50.878;4.392;2022-08-03T06:46:19;9.02;;;1.60;;
23517;SDS011;11935;50.878;4.392;2022-08-03T06:48:46;12.40;;;1.65;;
23517;SDS011;11935;50.878;4.392;2022-08-03T06:51:12;9.57;;;1.80;;
23517;SDS011;11935;50.878;4.392;2022-08-03T06:53:38;6.50;;;1.67;;
23517;SDS011;11935;50.878;4.392;2022-08-03T06:56:05;8.70;;;1.55;;
23517;SDS011;11935;50.878;4.392;2022-08-03T06:58:31;6.88;;;1.73;;
23517;SDS011;11935;50.878;4.392;2022-08-03T07:00:57;8.57;;;1.90;;
23517;SDS011;11935;50.878;4.392;2022-08-03T07:03:23;6.38;;;1.20;;
23517;SDS011;11935;50.878;4.392;2022-08-03T07:05:49;7.88;;;1.45;;
23517;SDS011;11935;50.878;4.392;2022-08-03T07:08:16;10.65;;;1.65;;
23517;SDS011;11935;50.878;4.392;2022-08-03T07:10:43;4.85;;;1.17;;
23517;SDS011;11935;50.878;4.392;2022-08-03T07:13:09;5.55;;;1.40;;
23517;SDS011;11935;50.878;4.392;2022-08-03T07:15:35;5.65;;;1.20;;
23517;SDS011;11935;50.878;4.392;2022-08-03T07:18:01;4.95;;;1.50;;
23517;SDS011;11935;50.878;4.392;2022-08-03T07:20:27;4.00;;;1.00;;
23517;SDS011;11935;50.878;4.392;2022-08-03T07:22:53;9.27;;;1.25;;
23517;SDS011;11935;50.878;4.392;2022-08-03T07:25:20;6.65;;;1.20;;
23517;SDS011;11935;50.878;4.392;2022-08-03T07:27:46;5.45;;;1.05;;
23517;SDS011;11935;50.878;4.392;2022-08-03T07:30:13;3.45;;;1.20;;
23517;SDS011;11935;50.878;4.392;2022-08-03T07:32:39;6.47;;;1.00;;
23517;SDS011;11935;50.878;4.392;2022-08-03T07:35:06;6.28;;;1.20;;
23517;SDS011;11935;50.878;4.392;2022-08-03T07:37:32;4.65;;;1.00;;
23517;SDS011;11935;50.878;4.392;2022-08-03T07:39:59;7.05;;;1.13;;
23517;SDS011;11935;50.878;4.392;2022-08-03T07:42:25;6.90;;;1.13;;
23517;SDS011;11935;50.878;4.392;2022-08-03T07:44:51;6.00;;;1.10;;
23517;SDS011;11935;50.878;4.392;2022-08-03T07:47:20;3.88;;;1.10;;
23517;SDS011;11935;50.878;4.392;2022-08-03T07:49:47;4.47;;;1.23;;
23517;SDS011;11935;50.878;4.392;2022-08-03T07:52:13;6.53;;;1.20;;
23517;SDS011;11935;50.878;4.392;2022-08-03T07:54:58;5.20;;;1.23;;
23517;SDS011;11935;50.878;4.392;2022-08-03T07:57:24;10.10;;;1.48;;
23517;SDS011;11935;50.878;4.392;2022-08-03T07:59:50;7.10;;;1.50;;
23517;SDS011;11935;50.878;4.392;2022-08-03T08:02:16;8.20;;;1.67;;
23517;SDS011;11935;50.878;4.392;2022-08-03T08:04:43;7.18;;;1.35;;
23517;SDS011;11935;50.878;4.392;2022-08-03T08:07:09;9.30;;;1.50;;
23517;SDS011;11935;50.878;4.392;2022-08-03T08:09:35;9.20;;;1.60;;
23517;SDS011;11935;50.878;4.392;2022-08-03T08:12:01;6.38;;;1.60;;
23517;SDS011;11935;50.878;4.392;2022-08-03T08:14:27;9.93;;;1.42;;
23517;SDS011;11935;50.878;4.392;2022-08-03T08:16:53;6.78;;;1.33;;
23517;SDS011;11935;50.878;4.392;2022-08-03T08:19:20;9.52;;;2.03;;
23517;SDS011;11935;50.878;4.392;2022-08-03T08:21:46;8.15;;;1.60;;
23517;SDS011;11935;50.878;4.392;2022-08-03T08:24:11;13.25;;;1.98;;
23517;SDS011;11935;50.878;4.392;2022-08-03T08:26:37;6.22;;;1.58;;
23517;SDS011;11935;50.878;4.392;2022-08-03T08:29:03;8.20;;;1.50;;
23517;SDS011;11935;50.878;4.392;2022-08-03T08:31:30;14.00;;;2.05;;
23517;SDS011;11935;50.878;4.392;2022-08-03T08:33:56;11.68;;;1.92;;
23517;SDS011;11935;50.878;4.392;2022-08-03T08:36:22;10.85;;;1.52;;
23517;SDS011;11935;50.878;4.392;2022-08-03T08:38:48;12.95;;;1.60;;
23517;SDS011;11935;50.878;4.392;2022-08-03T08:41:15;9.38;;;1.67;;
23517;SDS011;11935;50.878;4.392;2022-08-03T08:43:41;9.68;;;1.40;;
23517;SDS011;11935;50.878;4.392;2022-08-03T08:46:11;11.48;;;1.80;;
23517;SDS011;11935;50.878;4.392;2022-08-03T08:48:39;9.38;;;2.00;;
23517;SDS011;11935;50.878;4.392;2022-08-03T08:51:06;11.88;;;1.70;;
23517;SDS011;11935;50.878;4.392;2022-08-03T08:53:34;9.52;;;1.20;;
23517;SDS011;11935;50.878;4.392;2022-08-03T08:56:01;9.00;;;1.48;;
23517;SDS011;11935;50.878;4.392;2022-08-03T08:58:37;7.20;;;1.38;;
23517;SDS011;11935;50.878;4.392;2022-08-03T09:01:03;7.35;;;1.50;;
23517;SDS011;11935;50.878;4.392;2022-08-03T09:03:31;7.63;;;1.38;;
23517;SDS011;11935;50.878;4.392;2022-08-03T09:05:58;11.77;;;1.55;;
23517;SDS011;11935;50.878;4.392;2022-08-03T09:08:25;9.40;;;1.23;;
23517;SDS011;11935;50.878;4.392;2022-08-03T09:10:51;9.23;;;1.30;;
23517;SDS011;11935;50.878;4.392;2022-08-03T09:13:17;8.40;;;1.60;;
23517;SDS011;11935;50.878;4.392;2022-08-03T09:15:43;5.80;;;1.25;;
23517;SDS011;11935;50.878;4.392;2022-08-03T09:21:23;7.13;;;1.25;;
23517;SDS011;11935;50.878;4.392;2022-08-03T09:23:54;10.63;;;1.85;;
23517;SDS011;11935;50.878;4.392;2022-08-03T09:26:22;8.57;;;1.70;;
23517;SDS011;11935;50.878;4.392;2022-08-03T09:31:34;6.55;;;1.05;;
23517;SDS011;11935;50.878;4.392;2022-08-03T09:34:04;6.70;;;1.10;;
23517;SDS011;11935;50.878;4.392;2022-08-03T09:36:44;9.13;;;1.35;;
23517;SDS011;11935;50.878;4.392;2022-08-03T09:39:14;5.47;;;1.02;;
23517;SDS011;11935;50.878;4.392;2022-08-03T09:41:41;11.38;;;1.42;;
23517;SDS011;11935;50.878;4.392;2022-08-03T09:50:06;11.00;;;1.23;;
23517;SDS011;11935;50.878;4.392;2022-08-03T09:52:36;3.72;;;0.90;;
23517;SDS011;11935;50.878;4.392;2022-08-03T09:55:09;6.13;;;1.17;;
23517;SDS011;11935;50.878;4.392;2022-08-03T09:57:35;3.33;;;0.80;;
23517;SDS011;11935;50.878;4.392;2022-08-03T10:00:09;3.47;;;1.02;;
23517;SDS011;11935;50.878;4.392;2022-08-03T10:02:36;5.53;;;0.90;;
23517;SDS011;11935;50.878;4.392;2022-08-03T10:05:03;5.50;;;1.25;;
23517;SDS011;11935;50.878;4.392;2022-08-03T10:07:29;6.85;;;1.35;;
23517;SDS011;11935;50.878;4.392;2022-08-03T10:09:59;4.30;;;0.93;;
23517;SDS011;11935;50.878;4.392;2022-08-03T10:12:25;4.75;;;1.08;;
23517;SDS011;11935;50.878;4.392;2022-08-03T10:14:51;4.03;;;0.98;;
23517;SDS011;11935;50.878;4.392;2022-08-03T10:17:18;4.07;;;0.80;;
23517;SDS011;11935;50.878;4.392;2022-08-03T10:19:44;3.85;;;1.15;;
23517;SDS011;11935;50.878;4.392;2022-08-03T10:22:31;8.10;;;0.83;;
23517;SDS011;11935;50.878;4.392;2022-08-03T10:24:58;2.90;;;0.60;;
23517;SDS011;11935;50.878;4.392;2022-08-03T10:27:26;7.15;;;0.90;;
23517;SDS011;11935;50.878;4.392;2022-08-03T10:29:55;4.88;;;0.80;;
23517;SDS011;11935;50.878;4.392;2022-08-03T10:32:24;4.35;;;1.35;;
23517;SDS011;11935;50.878;4.392;2022-08-03T10:34:53;5.22;;;0.68;;
23517;SDS011;11935;50.878;4.392;2022-08-03T10:37:22;6.32;;;0.98;;
23517;SDS011;11935;50.878;4.392;2022-08-03T10:39:51;5.55;;;0.70;;
23517;SDS011;11935;50.878;4.392;2022-08-03T10:42:22;7.03;;;0.85;;
23517;SDS011;11935;50.878;4.392;2022-08-03T10:44:49;6.55;;;1.00;;
23517;SDS011;11935;50.878;4.392;2022-08-03T10:47:16;5.65;;;1.10;;
23517;SDS011;11935;50.878;4.392;2022-08-03T10:49:42;6.45;;;0.82;;
23517;SDS011;11935;50.878;4.392;2022-08-03T10:52:10;5.35;;;0.98;;
23517;SDS011;11935;50.878;4.392;2022-08-03T10:54:37;3.50;;;0.70;;
23517;SDS011;11935;50.878;4.392;2022-08-03T11:00:08;5.05;;;0.65;;
23517;SDS011;11935;50.878;4.392;2022-08-03T11:03:47;6.07;;;0.90;;
23517;SDS011;11935;50.878;4.392;2022-08-03T11:05:32;6.93;;;0.90;;
23517;SDS011;11935;50.878;4.392;2022-08-03T11:10:43;6.63;;;1.17;;
23517;SDS011;11935;50.878;4.392;2022-08-03T11:13:09;4.50;;;0.65;;
23517;SDS011;11935;50.878;4.392;2022-08-03T11:15:35;6.32;;;1.00;;
23517;SDS011;11935;50.878;4.392;2022-08-03T11:18:08;5.53;;;0.70;;
23517;SDS011;11935;50.878;4.392;2022-08-03T11:20:44;3.80;;;0.70;;
23517;SDS011;11935;50.878;4.392;2022-08-03T11:23:11;6.03;;;0.70;;
23517;SDS011;11935;50.878;4.392;2022-08-03T11:28:26;5.95;;;0.70;;
23517;SDS011;11935;50.878;4.392;2022-08-03T11:30:52;9.25;;;1.00;;
23517;SDS011;11935;50.878;4.392;2022-08-03T11:33:28;3.33;;;0.70;;
23517;SDS011;11935;50.878;4.392;2022-08-03T11:36:00;4.40;;;0.90;;
23517;SDS011;11935;50.878;4.392;2022-08-03T11:38:26;4.85;;;0.52;;
23517;SDS011;11935;50.878;4.392;2022-08-03T11:40:53;3.07;;;0.60;;
23517;SDS011;11935;50.878;4.392;2022-08-03T11:45:58;4.30;;;0.70;;
23517;SDS011;11935;50.878;4.392;2022-08-03T11:48:25;1.63;;;0.52;;
23517;SDS011;11935;50.878;4.392;2022-08-03T11:50:52;8.18;;;0.80;;
23517;SDS011;11935;50.878;4.392;2022-08-03T11:53:18;6.77;;;0.77;;
23517;SDS011;11935;50.878;4.392;2022-08-03T11:55:44;2.35;;;0.55;;
23517;SDS011;11935;50.878;4.392;2022-08-03T11:58:19;4.22;;;0.63;;
23517;SDS011;11935;50.878;4.392;2022-08-03T12:00:45;4.53;;;0.60;;
23517;SDS011;11935;50.878;4.392;2022-08-03T12:03:13;1.58;;;0.50;;
23517;SDS011;11935;50.878;4.392;2022-08-03T12:05:44;2.85;;;0.68;;
23517;SDS011;11935;50.878;4.392;2022-08-03T12:08:11;3.90;;;0.85;;
23517;SDS011;11935;50.878;4.392;2022-08-03T12:15:32;2.72;;;0.50;;
23517;SDS011;11935;50.878;4.392;2022-08-03T12:17:58;8.25;;;0.80;;
23517;SDS011;11935;50.878;4.392;2022-08-03T12:20:25;2.08;;;0.60;;
23517;SDS011;11935;50.878;4.392;2022-08-03T12:22:51;3.33;;;0.70;;
23517;SDS011;11935;50.878;4.392;2022-08-03T12:25:25;3.05;;;0.47;;
23517;SDS011;11935;50.878;4.392;2022-08-03T12:27:52;3.63;;;0.50;;
23517;SDS011;11935;50.878;4.392;2022-08-03T12:30:18;2.45;;;0.60;;
23517;SDS011;11935;50.878;4.392;2022-08-03T12:32:44;4.85;;;0.73;;
23517;SDS011;11935;50.878;4.392;2022-08-03T12:35:20;3.53;;;0.50;;
23517;SDS011;11935;50.878;4.392;2022-08-03T12:37:49;3.60;;;0.80;;
23517;SDS011;11935;50.878;4.392;2022-08-03T12:40:25;5.57;;;0.70;;
23517;SDS011;11935;50.878;4.392;2022-08-03T12:42:51;4.43;;;0.82;;
23517;SDS011;11935;50.878;4.392;2022-08-03T12:45:21;5.88;;;0.90;;
23517;SDS011;11935;50.878;4.392;2022-08-03T12:47:57;3.95;;;0.60;;
23517;SDS011;11935;50.878;4.392;2022-08-03T12:55:18;4.32;;;0.55;;
23517;SDS011;11935;50.878;4.392;2022-08-03T12:57:44;5.65;;;0.80;;
23517;SDS011;11935;50.878;4.392;2022-08-03T13:00:11;3.95;;;0.68;;
23517;SDS011;11935;50.878;4.392;2022-08-03T13:02:37;4.18;;;0.88;;
23517;SDS011;11935;50.878;4.392;2022-08-03T13:05:09;4.00;;;0.73;;
23517;SDS011;11935;50.878;4.392;2022-08-03T13:07:44;2.67;;;0.75;;
23517;SDS011;11935;50.878;4.392;2022-08-03T13:10:12;2.92;;;0.60;;
23517;SDS011;11935;50.878;4.392;2022-08-03T13:12:51;7.55;;;0.80;;
23517;SDS011;11935;50.878;4.392;2022-08-03T13:15:17;2.90;;;0.67;;
23517;SDS011;11935;50.878;4.392;2022-08-03T13:17:43;5.28;;;0.80;;
23517;SDS011;11935;50.878;4.392;2022-08-03T13:20:09;3.33;;;0.73;;
23517;SDS011;11935;50.878;4.392;2022-08-03T13:22:35;6.47;;;0.63;;
23517;SDS011;11935;50.878;4.392;2022-08-03T13:25:02;2.53;;;0.70;;
23517;SDS011;11935;50.878;4.392;2022-08-03T13:27:28;2.83;;;0.65;;
23517;SDS011;11935;50.878;4.392;2022-08-03T13:29:55;4.65;;;0.82;;
23517;SDS011;11935;50.878;4.392;2022-08-03T13:32:21;3.17;;;0.80;;
23517;SDS011;11935;50.878;4.392;2022-08-03T13:34:47;6.05;;;0.77;;
23517;SDS011;11935;50.878;4.392;2022-08-03T13:37:13;3.60;;;0.70;;
23517;SDS011;11935;50.878;4.392;2022-08-03T13:39:40;4.38;;;0.38;;
23517;SDS011;11935;50.878;4.392;2022-08-03T13:42:06;13.95;;;3.40;;
23517;SDS011;11935;50.878;4.392;2022-08-03T13:44:32;3.20;;;0.63;;
23517;SDS011;11935;50.878;4.392;2022-08-03T13:47:00;1.73;;;0.70;;
23517;SDS011;11935;50.878;4.392;2022-08-03T13:49:26;5.45;;;0.70;;
23517;SDS011;11935;50.878;4.392;2022-08-03T13:51:53;2.85;;;0.93;;
23517;SDS011;11935;50.878;4.392;2022-08-03T13:54:19;4.03;;;0.65;;
23517;SDS011;11935;50.878;4.392;2022-08-03T13:56:45;3.47;;;0.73;;
23517;SDS011;11935;50.878;4.392;2022-08-03T13:59:20;4.35;;;0.60;;
23517;SDS011;11935;50.878;4.392;2022-08-03T14:01:47;4.80;;;0.80;;
23517;SDS011;11935;50.878;4.392;2022-08-03T14:06:39;3.72;;;0.65;;
23517;SDS011;11935;50.878;4.392;2022-08-03T14:09:05;2.58;;;0.55;;
23517;SDS011;11935;50.878;4.392;2022-08-03T14:11:32;2.55;;;0.60;;
23517;SDS011;11935;50.878;4.392;2022-08-03T14:13:58;3.83;;;0.70;;
23517;SDS011;11935;50.878;4.392;2022-08-03T14:16:24;2.27;;;0.83;;
23517;SDS011;11935;50.878;4.392;2022-08-03T14:18:50;8.05;;;0.98;;
23517;SDS011;11935;50.878;4.392;2022-08-03T14:21:16;3.40;;;0.60;;
23517;SDS011;11935;50.878;4.392;2022-08-03T14:23:42;6.43;;;0.77;;
23517;SDS011;11935;50.878;4.392;2022-08-03T14:26:08;6.80;;;0.70;;
23517;SDS011;11935;50.878;4.392;2022-08-03T14:28:35;5.22;;;0.60;;
23517;SDS011;11935;50.878;4.392;2022-08-03T14:31:01;2.85;;;0.50;;
23517;SDS011;11935;50.878;4.392;2022-08-03T14:33:27;2.33;;;0.50;;
23517;SDS011;11935;50.878;4.392;2022-08-03T14:35:53;4.73;;;0.70;;
23517;SDS011;11935;50.878;4.392;2022-08-03T14:38:19;3.70;;;0.70;;
23517;SDS011;11935;50.878;4.392;2022-08-03T14:40:45;2.40;;;0.70;;
23517;SDS011;11935;50.878;4.392;2022-08-03T14:43:12;2.00;;;0.40;;
23517;SDS011;11935;50.878;4.392;2022-08-03T14:45:38;4.45;;;0.60;;
23517;SDS011;11935;50.878;4.392;2022-08-03T14:48:05;2.40;;;0.70;;
23517;SDS011;11935;50.878;4.392;2022-08-03T14:50:31;2.87;;;0.80;;
23517;SDS011;11935;50.878;4.392;2022-08-03T14:52:57;3.40;;;0.63;;
23517;SDS011;11935;50.878;4.392;2022-08-03T14:55:23;2.92;;;0.73;;
23517;SDS011;11935;50.878;4.392;2022-08-03T14:57:49;2.10;;;0.65;;
23517;SDS011;11935;50.878;4.392;2022-08-03T15:00:15;3.90;;;0.57;;
23517;SDS011;11935;50.878;4.392;2022-08-03T15:02:41;3.28;;;0.60;;
23517;SDS011;11935;50.878;4.392;2022-08-03T15:05:07;6.15;;;0.82;;
23517;SDS011;11935;50.878;4.392;2022-08-03T15:07:36;3.88;;;0.70;;
23517;SDS011;11935;50.878;4.392;2022-08-03T15:10:02;6.65;;;4.05;;
23517;SDS011;11935;50.878;4.392;2022-08-03T15:12:28;2.92;;;0.70;;
23517;SDS011;11935;50.878;4.392;2022-08-03T15:14:55;1.98;;;0.77;;
23517;SDS011;11935;50.878;4.392;2022-08-03T15:17:21;3.83;;;0.70;;
23517;SDS011;11935;50.878;4.392;2022-08-03T15:19:47;8.98;;;0.85;;
23517;SDS011;11935;50.878;4.392;2022-08-03T15:22:13;3.28;;;0.80;;
23517;SDS011;11935;50.878;4.392;2022-08-03T15:24:43;2.28;;;0.60;;
23517;SDS011;11935;50.878;4.392;2022-08-03T15:27:09;1.90;;;0.60;;
23517;SDS011;11935;50.878;4.392;2022-08-03T15:29:35;4.50;;;0.70;;
23517;SDS011;11935;50.878;4.392;2022-08-03T15:32:01;2.67;;;1.00;;